sensor_id;sensor_type;location;lat;lon;timestamp;P1;durP1;ratioP1;P2;durP2;ratioP2
18316;SDS011;9284;52.298;21.164;2023-02-04T00:00:31;12.83;;;7.53;;
18316;SDS011;9284;52.298;21.164;2023-02-04T00:03:03;11.50;;;6.43;;
18316;SDS011;9284;52.298;21.164;2023-02-04T04:09:41;8.67;;;4.20;;
18316;SDS011;9284;52.298;21.164;2023-02-04T04:12:09;9.13;;;4.27;;
18316;SDS011;9284;52.298;21.164;2023-02-04T04:14:37;5.93;;;3.90;;
18316;SDS011;9284;52.298;21.164;2023-02-04T04:17:05;8.40;;;4.00;;
18316;SDS011;9284;52.298;21.164;2023-02-04T04:19:34;7.97;;;4.10;;
18316;SDS011;9284;52.298;21.164;2023-02-04T04:22:02;10.43;;;4.80;;
18316;SDS011;9284;52.298;21.164;2023-02-04T04:24:30;8.80;;;4.53;;
18316;SDS011;9284;52.298;21.164;2023-02-04T04:27:00;10.30;;;4.77;;
18316;SDS011;9284;52.298;21.164;2023-02-04T04:29:28;7.73;;;4.33;;
18316;SDS011;9284;52.298;21.164;2023-02-04T04:31:57;9.60;;;4.63;;
18316;SDS011;9284;52.298;21.164;2023-02-04T04:34:25;11.60;;;4.50;;
18316;SDS011;9284;52.298;21.164;2023-02-04T04:36:53;12.37;;;5.00;;
18316;SDS011;9284;52.298;21.164;2023-02-04T04:39:21;10.40;;;5.50;;
18316;SDS011;9284;52.298;21.164;2023-02-04T04:41:50;10.07;;;5.00;;
18316;SDS011;9284;52.298;21.164;2023-02-04T04:44:19;12.53;;;5.23;;
18316;SDS011;9284;52.298;21.164;2023-02-04T04:46:47;12.47;;;4.80;;
18316;SDS011;9284;52.298;21.164;2023-02-04T04:49:16;14.10;;;5.83;;
18316;SDS011;9284;52.298;21.164;2023-02-04T04:51:44;10.93;;;5.27;;
18316;SDS011;9284;52.298;21.164;2023-02-04T04:54:12;8.30;;;4.77;;
18316;SDS011;9284;52.298;21.164;2023-02-04T04:56:41;10.90;;;5.57;;
18316;SDS011;9284;52.298;21.164;2023-02-04T04:59:09;12.07;;;5.00;;
18316;SDS011;9284;52.298;21.164;2023-02-04T05:01:38;10.40;;;4.97;;
18316;SDS011;9284;52.298;21.164;2023-02-04T05:04:07;11.20;;;4.87;;
18316;SDS011;9284;52.298;21.164;2023-02-04T05:06:35;11.57;;;4.93;;
18316;SDS011;9284;52.298;21.164;2023-02-04T05:09:03;9.50;;;5.53;;
18316;SDS011;9284;52.298;21.164;2023-02-04T05:11:32;11.47;;;5.33;;
18316;SDS011;9284;52.298;21.164;2023-02-04T05:14:00;11.67;;;5.47;;
18316;SDS011;9284;52.298;21.164;2023-02-04T05:16:28;11.10;;;5.20;;
18316;SDS011;9284;52.298;21.164;2023-02-04T05:18:58;9.60;;;4.90;;
18316;SDS011;9284;52.298;21.164;2023-02-04T05:21:26;10.10;;;5.17;;
18316;SDS011;9284;52.298;21.164;2023-02-04T05:23:54;9.93;;;4.90;;
18316;SDS011;9284;52.298;21.164;2023-02-04T05:26:23;10.10;;;5.07;;
18316;SDS011;9284;52.298;21.164;2023-02-04T05:28:56;12.80;;;5.37;;
18316;SDS011;9284;52.298;21.164;2023-02-04T05:31:25;10.10;;;6.03;;
18316;SDS011;9284;52.298;21.164;2023-02-04T05:33:54;14.20;;;5.73;;
18316;SDS011;9284;52.298;21.164;2023-02-04T05:36:24;13.33;;;5.63;;
18316;SDS011;9284;52.298;21.164;2023-02-04T05:38:52;12.60;;;5.27;;
18316;SDS011;9284;52.298;21.164;2023-02-04T05:41:20;10.03;;;5.07;;
18316;SDS011;9284;52.298;21.164;2023-02-04T05:43:48;10.80;;;5.40;;
18316;SDS011;9284;52.298;21.164;2023-02-04T05:46:17;11.50;;;5.23;;
18316;SDS011;9284;52.298;21.164;2023-02-04T05:48:45;7.80;;;4.77;;
18316;SDS011;9284;52.298;21.164;2023-02-04T05:51:13;14.20;;;6.00;;
18316;SDS011;9284;52.298;21.164;2023-02-04T05:53:43;12.63;;;5.30;;
18316;SDS011;9284;52.298;21.164;2023-02-04T05:56:11;9.30;;;4.93;;
18316;SDS011;9284;52.298;21.164;2023-02-04T05:58:39;11.37;;;5.17;;
18316;SDS011;9284;52.298;21.164;2023-02-04T06:01:08;10.10;;;4.83;;
18316;SDS011;9284;52.298;21.164;2023-02-04T06:03:36;11.93;;;5.10;;
18316;SDS011;9284;52.298;21.164;2023-02-04T06:06:05;11.47;;;5.40;;
18316;SDS011;9284;52.298;21.164;2023-02-04T06:08:33;7.27;;;4.27;;
18316;SDS011;9284;52.298;21.164;2023-02-04T06:11:03;10.23;;;4.57;;
18316;SDS011;9284;52.298;21.164;2023-02-04T06:13:31;8.67;;;4.77;;
18316;SDS011;9284;52.298;21.164;2023-02-04T06:15:59;9.10;;;4.63;;
18316;SDS011;9284;52.298;21.164;2023-02-04T06:18:28;12.17;;;4.47;;
18316;SDS011;9284;52.298;21.164;2023-02-04T06:20:56;10.43;;;4.90;;
18316;SDS011;9284;52.298;21.164;2023-02-04T06:23:24;10.30;;;4.57;;
18316;SDS011;9284;52.298;21.164;2023-02-04T06:25:52;9.87;;;4.80;;
18316;SDS011;9284;52.298;21.164;2023-02-04T06:28:22;10.17;;;4.60;;
18316;SDS011;9284;52.298;21.164;2023-02-04T06:30:50;8.97;;;4.80;;
18316;SDS011;9284;52.298;21.164;2023-02-04T06:33:18;10.03;;;4.53;;
18316;SDS011;9284;52.298;21.164;2023-02-04T06:35:49;8.07;;;4.23;;
18316;SDS011;9284;52.298;21.164;2023-02-04T06:38:17;9.60;;;4.37;;
18316;SDS011;9284;52.298;21.164;2023-02-04T06:40:46;11.23;;;4.20;;
18316;SDS011;9284;52.298;21.164;2023-02-04T06:43:19;9.53;;;4.80;;
18316;SDS011;9284;52.298;21.164;2023-02-04T06:45:49;6.50;;;4.10;;
18316;SDS011;9284;52.298;21.164;2023-02-04T06:48:17;8.17;;;4.20;;
18316;SDS011;9284;52.298;21.164;2023-02-04T06:50:46;7.43;;;3.90;;
18316;SDS011;9284;52.298;21.164;2023-02-04T06:53:14;11.57;;;4.60;;
18316;SDS011;9284;52.298;21.164;2023-02-04T06:55:42;10.10;;;4.07;;
18316;SDS011;9284;52.298;21.164;2023-02-04T06:58:11;11.67;;;4.90;;
18316;SDS011;9284;52.298;21.164;2023-02-04T07:00:39;8.37;;;4.20;;
18316;SDS011;9284;52.298;21.164;2023-02-04T07:03:09;7.33;;;4.60;;
18316;SDS011;9284;52.298;21.164;2023-02-04T07:05:37;8.93;;;4.17;;
18316;SDS011;9284;52.298;21.164;2023-02-04T07:08:05;10.17;;;4.07;;
18316;SDS011;9284;52.298;21.164;2023-02-04T07:10:33;5.93;;;3.50;;
18316;SDS011;9284;52.298;21.164;2023-02-04T07:13:02;7.40;;;3.70;;
18316;SDS011;9284;52.298;21.164;2023-02-04T07:15:30;7.37;;;3.40;;
18316;SDS011;9284;52.298;21.164;2023-02-04T07:17:58;7.37;;;3.50;;
18316;SDS011;9284;52.298;21.164;2023-02-04T07:20:28;11.33;;;3.80;;
18316;SDS011;9284;52.298;21.164;2023-02-04T07:22:57;10.40;;;3.83;;
18316;SDS011;9284;52.298;21.164;2023-02-04T07:25:25;6.73;;;3.37;;
18316;SDS011;9284;52.298;21.164;2023-02-04T07:27:53;8.10;;;4.00;;
18316;SDS011;9284;52.298;21.164;2023-02-04T07:30:23;10.73;;;3.60;;
18316;SDS011;9284;52.298;21.164;2023-02-04T07:32:51;9.10;;;3.90;;
18316;SDS011;9284;52.298;21.164;2023-02-04T07:35:19;8.80;;;3.70;;
18316;SDS011;9284;52.298;21.164;2023-02-04T07:37:49;8.67;;;3.47;;
18316;SDS011;9284;52.298;21.164;2023-02-04T07:40:17;9.37;;;3.47;;
18316;SDS011;9284;52.298;21.164;2023-02-04T07:42:47;11.07;;;3.80;;
18316;SDS011;9284;52.298;21.164;2023-02-04T07:45:17;8.47;;;3.50;;
18316;SDS011;9284;52.298;21.164;2023-02-04T07:47:45;6.13;;;3.37;;
18316;SDS011;9284;52.298;21.164;2023-02-04T07:50:13;10.07;;;3.43;;
18316;SDS011;9284;52.298;21.164;2023-02-04T07:52:42;8.27;;;3.43;;
18316;SDS011;9284;52.298;21.164;2023-02-04T07:55:12;6.30;;;2.77;;
18316;SDS011;9284;52.298;21.164;2023-02-04T07:57:40;7.50;;;2.80;;
18316;SDS011;9284;52.298;21.164;2023-02-04T08:00:09;5.77;;;2.70;;
18316;SDS011;9284;52.298;21.164;2023-02-04T08:02:41;5.87;;;2.90;;
18316;SDS011;9284;52.298;21.164;2023-02-04T08:05:09;8.73;;;3.40;;
18316;SDS011;9284;52.298;21.164;2023-02-04T08:07:38;11.37;;;3.00;;
18316;SDS011;9284;52.298;21.164;2023-02-04T08:10:07;7.57;;;2.93;;
18316;SDS011;9284;52.298;21.164;2023-02-04T08:12:38;8.23;;;2.67;;
18316;SDS011;9284;52.298;21.164;2023-02-04T08:15:07;8.70;;;2.77;;
18316;SDS011;9284;52.298;21.164;2023-02-04T08:17:38;7.50;;;3.27;;
18316;SDS011;9284;52.298;21.164;2023-02-04T08:20:06;9.63;;;3.20;;
18316;SDS011;9284;52.298;21.164;2023-02-04T08:22:36;7.80;;;3.30;;
18316;SDS011;9284;52.298;21.164;2023-02-04T08:25:04;8.53;;;3.67;;
18316;SDS011;9284;52.298;21.164;2023-02-04T08:27:33;6.17;;;2.93;;
18316;SDS011;9284;52.298;21.164;2023-02-04T08:30:03;5.37;;;3.03;;
18316;SDS011;9284;52.298;21.164;2023-02-04T08:32:31;8.50;;;2.77;;
18316;SDS011;9284;52.298;21.164;2023-02-04T08:35:00;5.67;;;2.73;;
18316;SDS011;9284;52.298;21.164;2023-02-04T08:37:30;8.07;;;3.73;;
18316;SDS011;9284;52.298;21.164;2023-02-04T08:39:59;7.90;;;3.27;;
18316;SDS011;9284;52.298;21.164;2023-02-04T08:42:27;6.53;;;3.10;;
18316;SDS011;9284;52.298;21.164;2023-02-04T08:44:55;12.87;;;3.07;;
18316;SDS011;9284;52.298;21.164;2023-02-04T08:47:25;7.63;;;3.00;;
18316;SDS011;9284;52.298;21.164;2023-02-04T08:49:53;7.43;;;2.60;;
18316;SDS011;9284;52.298;21.164;2023-02-04T08:52:22;3.93;;;1.90;;
18316;SDS011;9284;52.298;21.164;2023-02-04T08:54:50;5.87;;;2.47;;
18316;SDS011;9284;52.298;21.164;2023-02-04T08:57:18;4.27;;;2.00;;
18316;SDS011;9284;52.298;21.164;2023-02-04T08:59:46;8.47;;;2.73;;
18316;SDS011;9284;52.298;21.164;2023-02-04T09:02:15;3.50;;;2.13;;
18316;SDS011;9284;52.298;21.164;2023-02-04T09:04:44;3.90;;;2.00;;
18316;SDS011;9284;52.298;21.164;2023-02-04T09:07:12;5.13;;;2.53;;
18316;SDS011;9284;52.298;21.164;2023-02-04T09:09:41;3.83;;;2.13;;
18316;SDS011;9284;52.298;21.164;2023-02-04T09:12:09;7.27;;;2.40;;
18316;SDS011;9284;52.298;21.164;2023-02-04T09:14:37;6.07;;;2.43;;
18316;SDS011;9284;52.298;21.164;2023-02-04T09:17:05;3.03;;;2.20;;
18316;SDS011;9284;52.298;21.164;2023-02-04T09:19:34;2.43;;;1.80;;
18316;SDS011;9284;52.298;21.164;2023-02-04T09:22:03;4.07;;;2.13;;
18316;SDS011;9284;52.298;21.164;2023-02-04T09:24:31;4.70;;;2.23;;
18316;SDS011;9284;52.298;21.164;2023-02-04T09:27:00;3.43;;;1.90;;
18316;SDS011;9284;52.298;21.164;2023-02-04T09:29:28;4.43;;;1.90;;
18316;SDS011;9284;52.298;21.164;2023-02-04T09:31:56;4.13;;;2.07;;
18316;SDS011;9284;52.298;21.164;2023-02-04T09:34:25;3.97;;;2.27;;
18316;SDS011;9284;52.298;21.164;2023-02-04T09:36:53;5.50;;;2.10;;
18316;SDS011;9284;52.298;21.164;2023-02-04T09:39:23;3.90;;;1.90;;
18316;SDS011;9284;52.298;21.164;2023-02-04T09:41:51;3.07;;;1.77;;
18316;SDS011;9284;52.298;21.164;2023-02-04T09:44:21;4.57;;;2.03;;
18316;SDS011;9284;52.298;21.164;2023-02-04T09:46:52;2.50;;;1.53;;
18316;SDS011;9284;52.298;21.164;2023-02-04T09:49:23;3.40;;;1.50;;
18316;SDS011;9284;52.298;21.164;2023-02-04T09:51:53;4.40;;;1.90;;
18316;SDS011;9284;52.298;21.164;2023-02-04T09:54:23;2.67;;;1.67;;
18316;SDS011;9284;52.298;21.164;2023-02-04T09:56:52;3.47;;;1.33;;
18316;SDS011;9284;52.298;21.164;2023-02-04T09:59:20;7.57;;;2.40;;
18316;SDS011;9284;52.298;21.164;2023-02-04T10:01:50;6.97;;;2.37;;
18316;SDS011;9284;52.298;21.164;2023-02-04T10:04:22;9.10;;;2.33;;
18316;SDS011;9284;52.298;21.164;2023-02-04T10:06:51;7.07;;;2.30;;
18316;SDS011;9284;52.298;21.164;2023-02-04T10:09:20;5.17;;;2.37;;
18316;SDS011;9284;52.298;21.164;2023-02-04T10:11:49;6.10;;;3.13;;
18316;SDS011;9284;52.298;21.164;2023-02-04T10:14:18;4.93;;;2.30;;
18316;SDS011;9284;52.298;21.164;2023-02-04T10:16:51;5.70;;;1.80;;
18316;SDS011;9284;52.298;21.164;2023-02-04T10:19:24;4.07;;;2.07;;
18316;SDS011;9284;52.298;21.164;2023-02-04T10:21:55;6.10;;;2.43;;
18316;SDS011;9284;52.298;21.164;2023-02-04T10:24:24;6.90;;;2.60;;
18316;SDS011;9284;52.298;21.164;2023-02-04T10:27:06;8.83;;;3.13;;
18316;SDS011;9284;52.298;21.164;2023-02-04T10:29:36;6.53;;;3.07;;
18316;SDS011;9284;52.298;21.164;2023-02-04T10:34:56;4.27;;;2.40;;
18316;SDS011;9284;52.298;21.164;2023-02-04T10:37:26;6.80;;;2.60;;
18316;SDS011;9284;52.298;21.164;2023-02-04T10:39:55;4.47;;;2.20;;
18316;SDS011;9284;52.298;21.164;2023-02-04T10:42:25;6.10;;;2.30;;
18316;SDS011;9284;52.298;21.164;2023-02-04T10:44:55;4.77;;;2.60;;
18316;SDS011;9284;52.298;21.164;2023-02-04T10:47:24;4.13;;;2.27;;
18316;SDS011;9284;52.298;21.164;2023-02-04T10:49:57;4.80;;;2.20;;
18316;SDS011;9284;52.298;21.164;2023-02-04T10:52:33;3.90;;;2.20;;
18316;SDS011;9284;52.298;21.164;2023-02-04T10:55:03;4.07;;;2.00;;
18316;SDS011;9284;52.298;21.164;2023-02-04T10:57:36;4.87;;;1.90;;
18316;SDS011;9284;52.298;21.164;2023-02-04T11:00:13;4.20;;;2.37;;
18316;SDS011;9284;52.298;21.164;2023-02-04T11:02:43;5.80;;;2.73;;
18316;SDS011;9284;52.298;21.164;2023-02-04T11:05:15;4.33;;;2.23;;
18316;SDS011;9284;52.298;21.164;2023-02-04T11:07:45;6.13;;;2.43;;
18316;SDS011;9284;52.298;21.164;2023-02-04T11:10:15;14.53;;;3.80;;
18316;SDS011;9284;52.298;21.164;2023-02-04T11:12:46;12.33;;;3.40;;
18316;SDS011;9284;52.298;21.164;2023-02-04T11:15:37;11.27;;;3.30;;
18316;SDS011;9284;52.298;21.164;2023-02-04T11:18:10;8.40;;;3.37;;
18316;SDS011;9284;52.298;21.164;2023-02-04T11:20:40;5.77;;;2.73;;
18316;SDS011;9284;52.298;21.164;2023-02-04T11:23:16;4.00;;;2.03;;
18316;SDS011;9284;52.298;21.164;2023-02-04T11:26:02;7.47;;;2.50;;
18316;SDS011;9284;52.298;21.164;2023-02-04T11:28:45;5.40;;;2.30;;
18316;SDS011;9284;52.298;21.164;2023-02-04T11:31:26;8.20;;;2.53;;
18316;SDS011;9284;52.298;21.164;2023-02-04T11:34:26;7.33;;;2.17;;
18316;SDS011;9284;52.298;21.164;2023-02-04T11:37:02;5.97;;;2.77;;
18316;SDS011;9284;52.298;21.164;2023-02-04T11:39:39;5.50;;;2.67;;
18316;SDS011;9284;52.298;21.164;2023-02-04T11:42:13;7.53;;;2.50;;
18316;SDS011;9284;52.298;21.164;2023-02-04T11:44:53;4.77;;;2.43;;
18316;SDS011;9284;52.298;21.164;2023-02-04T11:47:26;5.57;;;2.37;;
18316;SDS011;9284;52.298;21.164;2023-02-04T11:50:01;4.70;;;2.60;;
18316;SDS011;9284;52.298;21.164;2023-02-04T11:52:33;5.10;;;2.73;;
18316;SDS011;9284;52.298;21.164;2023-02-04T11:55:02;5.30;;;2.67;;
18316;SDS011;9284;52.298;21.164;2023-02-04T11:57:36;7.07;;;2.70;;
18316;SDS011;9284;52.298;21.164;2023-02-04T12:00:11;5.97;;;2.43;;
18316;SDS011;9284;52.298;21.164;2023-02-04T12:02:42;5.27;;;2.60;;
18316;SDS011;9284;52.298;21.164;2023-02-04T12:05:12;6.47;;;2.27;;
18316;SDS011;9284;52.298;21.164;2023-02-04T12:07:42;4.70;;;2.47;;
18316;SDS011;9284;52.298;21.164;2023-02-04T12:10:21;5.93;;;2.60;;
18316;SDS011;9284;52.298;21.164;2023-02-04T12:12:52;7.97;;;3.13;;
18316;SDS011;9284;52.298;21.164;2023-02-04T12:15:30;14.33;;;3.27;;
18316;SDS011;9284;52.298;21.164;2023-02-04T12:18:02;6.07;;;2.37;;
18316;SDS011;9284;52.298;21.164;2023-02-04T12:20:34;4.83;;;2.33;;
18316;SDS011;9284;52.298;21.164;2023-02-04T12:23:03;3.40;;;2.30;;
18316;SDS011;9284;52.298;21.164;2023-02-04T12:25:32;5.43;;;2.80;;
18316;SDS011;9284;52.298;21.164;2023-02-04T12:28:00;6.00;;;2.80;;
18316;SDS011;9284;52.298;21.164;2023-02-04T12:30:30;7.07;;;3.13;;
18316;SDS011;9284;52.298;21.164;2023-02-04T12:32:58;4.20;;;2.17;;
18316;SDS011;9284;52.298;21.164;2023-02-04T12:35:26;4.97;;;2.33;;
18316;SDS011;9284;52.298;21.164;2023-02-04T12:37:55;5.17;;;2.50;;
18316;SDS011;9284;52.298;21.164;2023-02-04T12:40:24;5.77;;;2.73;;
18316;SDS011;9284;52.298;21.164;2023-02-04T12:42:52;7.27;;;2.80;;
18316;SDS011;9284;52.298;21.164;2023-02-04T12:45:21;6.87;;;2.60;;
18316;SDS011;9284;52.298;21.164;2023-02-04T12:47:50;4.93;;;2.23;;
18316;SDS011;9284;52.298;21.164;2023-02-04T12:50:19;4.23;;;2.20;;
18316;SDS011;9284;52.298;21.164;2023-02-04T12:52:49;4.77;;;2.17;;
18316;SDS011;9284;52.298;21.164;2023-02-04T12:55:18;4.70;;;2.53;;
18316;SDS011;9284;52.298;21.164;2023-02-04T12:57:47;5.97;;;2.73;;
18316;SDS011;9284;52.298;21.164;2023-02-04T13:00:16;8.37;;;2.90;;
18316;SDS011;9284;52.298;21.164;2023-02-04T13:02:47;5.93;;;2.47;;
18316;SDS011;9284;52.298;21.164;2023-02-04T13:05:17;6.50;;;2.30;;
18316;SDS011;9284;52.298;21.164;2023-02-04T13:07:45;5.80;;;2.70;;
18316;SDS011;9284;52.298;21.164;2023-02-04T13:10:14;5.53;;;2.80;;
18316;SDS011;9284;52.298;21.164;2023-02-04T13:12:42;7.13;;;2.60;;
18316;SDS011;9284;52.298;21.164;2023-02-04T13:15:10;5.57;;;2.50;;
18316;SDS011;9284;52.298;21.164;2023-02-04T13:17:38;4.97;;;2.27;;
18316;SDS011;9284;52.298;21.164;2023-02-04T13:20:08;4.37;;;2.50;;
18316;SDS011;9284;52.298;21.164;2023-02-04T13:22:39;5.33;;;2.60;;
18316;SDS011;9284;52.298;21.164;2023-02-04T13:25:08;4.80;;;2.30;;
18316;SDS011;9284;52.298;21.164;2023-02-04T13:27:38;5.17;;;3.10;;
18316;SDS011;9284;52.298;21.164;2023-02-04T13:30:07;4.97;;;2.40;;
18316;SDS011;9284;52.298;21.164;2023-02-04T13:32:41;5.23;;;2.10;;
18316;SDS011;9284;52.298;21.164;2023-02-04T13:35:09;4.93;;;1.70;;
18316;SDS011;9284;52.298;21.164;2023-02-04T13:37:39;3.53;;;1.60;;
18316;SDS011;9284;52.298;21.164;2023-02-04T13:40:11;1.87;;;1.20;;
18316;SDS011;9284;52.298;21.164;2023-02-04T13:42:44;3.07;;;1.60;;
18316;SDS011;9284;52.298;21.164;2023-02-04T13:45:12;3.23;;;1.50;;
18316;SDS011;9284;52.298;21.164;2023-02-04T13:47:41;3.10;;;1.60;;
18316;SDS011;9284;52.298;21.164;2023-02-04T13:50:10;2.67;;;1.70;;
18316;SDS011;9284;52.298;21.164;2023-02-04T13:52:40;4.90;;;1.80;;
18316;SDS011;9284;52.298;21.164;2023-02-04T13:55:08;3.57;;;2.13;;
18316;SDS011;9284;52.298;21.164;2023-02-04T13:57:38;5.10;;;2.10;;
18316;SDS011;9284;52.298;21.164;2023-02-04T14:00:07;4.70;;;2.23;;
18316;SDS011;9284;52.298;21.164;2023-02-04T14:02:39;3.17;;;1.80;;
18316;SDS011;9284;52.298;21.164;2023-02-04T14:05:08;2.60;;;1.90;;
18316;SDS011;9284;52.298;21.164;2023-02-04T14:07:37;4.30;;;1.83;;
18316;SDS011;9284;52.298;21.164;2023-02-04T14:10:07;3.30;;;1.80;;
18316;SDS011;9284;52.298;21.164;2023-02-04T14:12:35;4.57;;;2.20;;
18316;SDS011;9284;52.298;21.164;2023-02-04T14:15:04;5.43;;;2.20;;
18316;SDS011;9284;52.298;21.164;2023-02-04T14:17:32;4.23;;;2.40;;
18316;SDS011;9284;52.298;21.164;2023-02-04T14:20:01;6.00;;;2.10;;
18316;SDS011;9284;52.298;21.164;2023-02-04T14:22:30;6.33;;;2.60;;
18316;SDS011;9284;52.298;21.164;2023-02-04T14:24:59;4.23;;;2.23;;
18316;SDS011;9284;52.298;21.164;2023-02-04T14:27:28;6.20;;;1.97;;
18316;SDS011;9284;52.298;21.164;2023-02-04T14:29:58;4.33;;;2.30;;
18316;SDS011;9284;52.298;21.164;2023-02-04T14:32:26;4.00;;;2.07;;
18316;SDS011;9284;52.298;21.164;2023-02-04T14:34:54;3.77;;;1.73;;
18316;SDS011;9284;52.298;21.164;2023-02-04T14:37:23;4.23;;;2.10;;
18316;SDS011;9284;52.298;21.164;2023-02-04T14:39:54;4.27;;;2.13;;
18316;SDS011;9284;52.298;21.164;2023-02-04T14:42:25;2.43;;;1.73;;
18316;SDS011;9284;52.298;21.164;2023-02-04T14:44:55;4.83;;;2.30;;
18316;SDS011;9284;52.298;21.164;2023-02-04T14:47:24;2.63;;;1.80;;
18316;SDS011;9284;52.298;21.164;2023-02-04T14:49:52;3.10;;;1.83;;
18316;SDS011;9284;52.298;21.164;2023-02-04T14:52:21;4.33;;;1.73;;
18316;SDS011;9284;52.298;21.164;2023-02-04T14:54:49;4.13;;;1.83;;
18316;SDS011;9284;52.298;21.164;2023-02-04T14:57:19;3.53;;;1.77;;
18316;SDS011;9284;52.298;21.164;2023-02-04T14:59:47;3.33;;;1.90;;
18316;SDS011;9284;52.298;21.164;2023-02-04T15:02:17;5.07;;;2.27;;
18316;SDS011;9284;52.298;21.164;2023-02-04T15:04:46;4.70;;;2.23;;
18316;SDS011;9284;52.298;21.164;2023-02-04T15:07:15;7.67;;;2.20;;
18316;SDS011;9284;52.298;21.164;2023-02-04T15:09:45;5.23;;;2.60;;
18316;SDS011;9284;52.298;21.164;2023-02-04T15:12:14;6.53;;;2.47;;
18316;SDS011;9284;52.298;21.164;2023-02-04T15:14:43;9.33;;;3.50;;
18316;SDS011;9284;52.298;21.164;2023-02-04T15:17:13;10.00;;;3.77;;
18316;SDS011;9284;52.298;21.164;2023-02-04T15:19:43;10.73;;;4.03;;
18316;SDS011;9284;52.298;21.164;2023-02-04T15:22:12;8.27;;;4.07;;
18316;SDS011;9284;52.298;21.164;2023-02-04T15:24:43;8.20;;;3.93;;
18316;SDS011;9284;52.298;21.164;2023-02-04T15:27:12;13.80;;;6.10;;
18316;SDS011;9284;52.298;21.164;2023-02-04T15:29:44;11.40;;;5.57;;
18316;SDS011;9284;52.298;21.164;2023-02-04T15:32:13;13.27;;;5.03;;
18316;SDS011;9284;52.298;21.164;2023-02-04T15:34:44;23.83;;;6.43;;
18316;SDS011;9284;52.298;21.164;2023-02-04T15:37:12;13.80;;;4.93;;
18316;SDS011;9284;52.298;21.164;2023-02-04T15:39:40;23.13;;;6.90;;
18316;SDS011;9284;52.298;21.164;2023-02-04T15:42:12;22.37;;;8.57;;
18316;SDS011;9284;52.298;21.164;2023-02-04T15:44:42;13.13;;;4.80;;
18316;SDS011;9284;52.298;21.164;2023-02-04T15:47:11;8.80;;;3.90;;
18316;SDS011;9284;52.298;21.164;2023-02-04T15:52:30;9.57;;;4.80;;
18316;SDS011;9284;52.298;21.164;2023-02-04T15:54:59;7.83;;;3.93;;
18316;SDS011;9284;52.298;21.164;2023-02-04T15:57:27;10.43;;;3.97;;
18316;SDS011;9284;52.298;21.164;2023-02-04T15:59:56;10.97;;;4.03;;
18316;SDS011;9284;52.298;21.164;2023-02-04T16:02:24;13.00;;;5.30;;
18316;SDS011;9284;52.298;21.164;2023-02-04T16:04:53;15.07;;;5.70;;
18316;SDS011;9284;52.298;21.164;2023-02-04T16:07:23;10.80;;;5.50;;
18316;SDS011;9284;52.298;21.164;2023-02-04T16:10:02;14.07;;;5.53;;
18316;SDS011;9284;52.298;21.164;2023-02-04T16:12:31;14.30;;;5.93;;
18316;SDS011;9284;52.298;21.164;2023-02-04T16:14:59;13.90;;;7.00;;
18316;SDS011;9284;52.298;21.164;2023-02-04T16:17:31;15.13;;;6.60;;
18316;SDS011;9284;52.298;21.164;2023-02-04T16:20:01;15.47;;;6.73;;
18316;SDS011;9284;52.298;21.164;2023-02-04T16:22:34;16.00;;;6.67;;
18316;SDS011;9284;52.298;21.164;2023-02-04T16:25:03;12.87;;;5.87;;
18316;SDS011;9284;52.298;21.164;2023-02-04T16:27:32;11.90;;;5.20;;
18316;SDS011;9284;52.298;21.164;2023-02-04T16:30:01;10.37;;;5.17;;
18316;SDS011;9284;52.298;21.164;2023-02-04T16:32:30;12.93;;;4.87;;
18316;SDS011;9284;52.298;21.164;2023-02-04T16:34:59;10.23;;;5.23;;
18316;SDS011;9284;52.298;21.164;2023-02-04T16:37:29;13.53;;;5.17;;
18316;SDS011;9284;52.298;21.164;2023-02-04T16:39:59;12.77;;;6.00;;
18316;SDS011;9284;52.298;21.164;2023-02-04T16:42:28;13.00;;;5.83;;
18316;SDS011;9284;52.298;21.164;2023-02-04T16:44:56;15.77;;;5.73;;
18316;SDS011;9284;52.298;21.164;2023-02-04T16:47:25;22.30;;;7.50;;
18316;SDS011;9284;52.298;21.164;2023-02-04T16:49:53;22.67;;;7.87;;
18316;SDS011;9284;52.298;21.164;2023-02-04T16:52:26;14.07;;;6.20;;
18316;SDS011;9284;52.298;21.164;2023-02-04T16:54:56;16.27;;;6.50;;
18316;SDS011;9284;52.298;21.164;2023-02-04T16:57:24;13.07;;;5.83;;
18316;SDS011;9284;52.298;21.164;2023-02-04T16:59:55;15.70;;;6.20;;
18316;SDS011;9284;52.298;21.164;2023-02-04T17:02:23;16.27;;;6.17;;
18316;SDS011;9284;52.298;21.164;2023-02-04T17:04:52;14.30;;;5.57;;
18316;SDS011;9284;52.298;21.164;2023-02-04T17:07:20;14.30;;;5.33;;
18316;SDS011;9284;52.298;21.164;2023-02-04T17:09:52;19.27;;;6.43;;
18316;SDS011;9284;52.298;21.164;2023-02-04T17:12:22;15.93;;;5.50;;
18316;SDS011;9284;52.298;21.164;2023-02-04T17:14:50;13.50;;;5.37;;
18316;SDS011;9284;52.298;21.164;2023-02-04T17:17:19;15.03;;;5.93;;
18316;SDS011;9284;52.298;21.164;2023-02-04T17:19:47;17.97;;;5.93;;
18316;SDS011;9284;52.298;21.164;2023-02-04T17:22:16;15.07;;;5.63;;
18316;SDS011;9284;52.298;21.164;2023-02-04T17:24:44;14.97;;;6.10;;
18316;SDS011;9284;52.298;21.164;2023-02-04T17:27:12;13.73;;;6.07;;
18316;SDS011;9284;52.298;21.164;2023-02-04T17:29:42;17.70;;;6.03;;
18316;SDS011;9284;52.298;21.164;2023-02-04T17:32:10;12.40;;;5.83;;
18316;SDS011;9284;52.298;21.164;2023-02-04T17:34:38;17.80;;;7.37;;
18316;SDS011;9284;52.298;21.164;2023-02-04T17:37:07;16.03;;;6.20;;
18316;SDS011;9284;52.298;21.164;2023-02-04T17:39:35;13.70;;;6.00;;
18316;SDS011;9284;52.298;21.164;2023-02-04T17:42:03;18.50;;;7.77;;
18316;SDS011;9284;52.298;21.164;2023-02-04T17:44:32;17.10;;;7.47;;
18316;SDS011;9284;52.298;21.164;2023-02-04T17:47:01;25.43;;;9.23;;
18316;SDS011;9284;52.298;21.164;2023-02-04T17:49:30;29.03;;;12.37;;
18316;SDS011;9284;52.298;21.164;2023-02-04T17:51:59;31.20;;;13.03;;
18316;SDS011;9284;52.298;21.164;2023-02-04T17:54:28;37.93;;;15.50;;
18316;SDS011;9284;52.298;21.164;2023-02-04T17:56:57;41.83;;;18.47;;
18316;SDS011;9284;52.298;21.164;2023-02-04T17:59:28;49.37;;;18.13;;
18316;SDS011;9284;52.298;21.164;2023-02-04T18:01:57;44.47;;;18.13;;
18316;SDS011;9284;52.298;21.164;2023-02-04T18:04:27;40.30;;;15.77;;
18316;SDS011;9284;52.298;21.164;2023-02-04T18:06:55;39.87;;;15.10;;
18316;SDS011;9284;52.298;21.164;2023-02-04T18:09:24;43.47;;;16.60;;
18316;SDS011;9284;52.298;21.164;2023-02-04T18:11:53;40.17;;;16.13;;
18316;SDS011;9284;52.298;21.164;2023-02-04T18:14:23;33.07;;;12.07;;
18316;SDS011;9284;52.298;21.164;2023-02-04T18:16:54;30.07;;;11.73;;
18316;SDS011;9284;52.298;21.164;2023-02-04T18:19:31;34.00;;;15.47;;
18316;SDS011;9284;52.298;21.164;2023-02-04T18:22:04;40.47;;;15.07;;
18316;SDS011;9284;52.298;21.164;2023-02-04T18:24:38;35.67;;;13.10;;
18316;SDS011;9284;52.298;21.164;2023-02-04T18:27:13;31.37;;;11.67;;
18316;SDS011;9284;52.298;21.164;2023-02-04T18:29:45;26.73;;;11.63;;
18316;SDS011;9284;52.298;21.164;2023-02-04T18:32:17;32.33;;;10.93;;
18316;SDS011;9284;52.298;21.164;2023-02-04T18:34:49;31.77;;;12.97;;
18316;SDS011;9284;52.298;21.164;2023-02-04T18:37:25;32.63;;;12.53;;
18316;SDS011;9284;52.298;21.164;2023-02-04T18:39:56;29.53;;;13.03;;
18316;SDS011;9284;52.298;21.164;2023-02-04T18:42:46;50.83;;;23.70;;
18316;SDS011;9284;52.298;21.164;2023-02-04T18:45:19;68.90;;;28.77;;
18316;SDS011;9284;52.298;21.164;2023-02-04T18:47:50;41.03;;;18.43;;
18316;SDS011;9284;52.298;21.164;2023-02-04T18:50:24;45.87;;;17.77;;
18316;SDS011;9284;52.298;21.164;2023-02-04T18:52:55;87.87;;;32.67;;
18316;SDS011;9284;52.298;21.164;2023-02-04T18:55:28;54.00;;;21.07;;
18316;SDS011;9284;52.298;21.164;2023-02-04T18:58:11;22.53;;;9.73;;
18316;SDS011;9284;52.298;21.164;2023-02-04T19:00:55;35.87;;;15.23;;
18316;SDS011;9284;52.298;21.164;2023-02-04T19:03:27;40.60;;;17.13;;
18316;SDS011;9284;52.298;21.164;2023-02-04T19:05:59;29.17;;;14.13;;